createdAt,value
2022-07-29T00:01:44.980Z,100788.16
2022-07-29T00:04:14.773Z,100789.41
2022-07-29T00:06:43.905Z,100781.41
2022-07-29T00:09:13.000Z,100784.09
2022-07-29T00:11:41.841Z,100782.56
2022-07-29T00:14:13.392Z,100785.06
2022-07-29T00:16:42.896Z,100747.56
2022-07-29T00:19:11.775Z,100780.75
2022-07-29T00:21:41.544Z,100787.22
2022-07-29T00:24:10.572Z,100784.25
2022-07-29T00:26:39.392Z,100778.88
2022-07-29T00:31:58.450Z,100784.00
2022-07-29T00:34:44.471Z,100781.50
2022-07-29T00:37:13.446Z,100775.72
2022-07-29T00:39:42.237Z,100774.09
2022-07-29T00:42:11.089Z,100764.53
2022-07-29T00:44:40.583Z,100752.63
2022-07-29T00:47:12.087Z,100758.91
2022-07-29T00:49:41.940Z,100759.94
2022-07-29T00:52:12.354Z,100766.22
2022-07-29T00:57:14.637Z,100775.69
2022-07-29T00:59:43.410Z,100793.06
2022-07-29T01:02:14.038Z,100783.66
2022-07-29T01:04:43.695Z,100776.81
2022-07-29T01:07:13.454Z,100769.28
2022-07-29T01:09:46.942Z,100772.66
2022-07-29T01:12:19.787Z,100769.31
2022-07-29T01:14:50.277Z,100760.38
2022-07-29T01:17:26.636Z,100781.28
2022-07-29T01:20:01.013Z,100782.56
2022-07-29T01:22:39.658Z,100780.28
2022-07-29T01:25:32.824Z,100774.81
2022-07-29T01:28:20.073Z,100783.22
2022-07-29T01:30:56.546Z,100778.19
2022-07-29T01:33:46.719Z,100780.91
2022-07-29T01:36:19.782Z,100772.97
2022-07-29T01:38:56.622Z,100768.16
2022-07-29T01:41:26.264Z,100762.16
2022-07-29T01:43:59.845Z,100736.03
2022-07-29T01:46:34.186Z,100769.22
2022-07-29T01:49:11.341Z,100772.97
2022-07-29T01:51:46.540Z,100599.28
2022-07-29T01:54:21.056Z,100781.13
2022-07-29T01:56:53.619Z,100782.38
2022-07-29T01:59:24.575Z,100783.63
2022-07-29T02:01:57.030Z,100782.41
2022-07-29T02:04:33.571Z,100790.34
2022-07-29T02:07:05.117Z,100787.41
2022-07-29T02:09:36.107Z,100794.09
2022-07-29T02:12:08.223Z,100800.78
2022-07-29T02:14:40.763Z,100801.41
2022-07-29T02:17:11.444Z,100793.91
2022-07-29T02:19:41.127Z,100784.50
2022-07-29T02:22:13.243Z,100786.56
2022-07-29T02:24:43.333Z,100788.66
2022-07-29T02:27:12.935Z,100743.09
2022-07-29T02:29:42.964Z,100781.97
2022-07-29T02:32:16.206Z,100794.50
2022-07-29T02:34:47.200Z,100784.50
2022-07-29T02:37:18.115Z,100776.97
2022-07-29T02:39:50.352Z,100726.38
2022-07-29T02:42:21.119Z,100778.44
2022-07-29T02:44:50.051Z,100772.81
2022-07-29T02:47:25.871Z,100733.91
2022-07-29T02:50:02.715Z,100775.50
2022-07-29T02:52:37.777Z,100774.88
2022-07-29T02:55:14.803Z,100784.50
2022-07-29T02:57:54.678Z,100743.31
2022-07-29T03:00:30.116Z,100781.97
2022-07-29T03:03:04.419Z,100782.84
2022-07-29T03:05:34.071Z,100773.59
2022-07-29T03:08:05.289Z,100775.09
2022-07-29T03:10:35.342Z,100770.31
2022-07-29T03:13:04.607Z,100763.19
2022-07-29T03:15:34.300Z,100767.38
2022-07-29T03:18:05.533Z,100765.44
2022-07-29T03:20:34.691Z,100770.25
2022-07-29T03:23:03.550Z,100782.16
2022-07-29T03:25:32.658Z,100775.47
2022-07-29T03:28:02.424Z,100780.06
2022-07-29T03:30:31.902Z,100776.91
2022-07-29T03:33:01.039Z,100779.84
2022-07-29T03:35:32.870Z,100785.28
2022-07-29T03:38:01.960Z,100774.41
2022-07-29T03:40:36.342Z,100759.78
2022-07-29T03:43:08.461Z,100754.78
2022-07-29T03:45:37.763Z,100770.25
2022-07-29T03:48:11.183Z,100766.94
2022-07-29T03:50:41.879Z,100761.94
2022-07-29T03:53:11.087Z,100590.88
2022-07-29T03:55:44.600Z,100760.47
2022-07-29T03:58:15.057Z,100762.56
2022-07-29T04:00:45.161Z,100776.34
2022-07-29T04:03:15.739Z,100785.75
2022-07-29T04:05:46.204Z,100786.56
2022-07-29T04:08:14.978Z,100805.38
2022-07-29T04:10:43.841Z,100799.97
2022-07-29T04:13:12.628Z,100799.97
2022-07-29T04:15:41.544Z,100695.91
2022-07-29T04:18:10.343Z,100796.81
2022-07-29T04:20:39.147Z,100803.72
2022-07-29T04:23:09.422Z,100795.13
2022-07-29T04:25:40.958Z,100802.03
2022-07-29T04:28:10.439Z,100793.03
2022-07-29T04:30:40.702Z,100792.00
2022-07-29T04:33:10.206Z,100795.13
2022-07-29T04:35:49.892Z,100794.94
2022-07-29T04:38:21.020Z,100799.09
2022-07-29T04:40:49.977Z,100812.47
2022-07-29T04:43:22.632Z,100811.66
2022-07-29T04:45:52.586Z,100818.13
2022-07-29T04:48:26.703Z,100814.78
2022-07-29T04:50:57.660Z,100829.19
2022-07-29T04:53:28.135Z,100796.81
2022-07-29T04:55:57.077Z,100832.75
2022-07-29T04:58:25.980Z,100829.84
2022-07-29T05:00:54.750Z,100837.75
2022-07-29T05:03:23.810Z,100835.66
2022-07-29T05:05:52.659Z,100826.06
2022-07-29T05:08:21.424Z,100826.47
2022-07-29T05:10:51.755Z,100830.03
2022-07-29T05:13:20.627Z,100826.69
2022-07-29T05:15:49.555Z,100832.31
2022-07-29T05:18:19.437Z,100834.84
2022-07-29T05:20:48.274Z,100844.03
2022-07-29T05:23:18.852Z,100846.31
2022-07-29T05:25:47.562Z,100851.16
2022-07-29T05:28:17.834Z,100854.69
2022-07-29T05:30:46.842Z,100856.78
2022-07-29T05:33:36.023Z,100849.69
2022-07-29T05:36:06.709Z,100839.03
2022-07-29T05:38:35.621Z,100828.13
2022-07-29T05:41:04.476Z,100826.03
2022-07-29T05:43:34.853Z,100813.94
2022-07-29T05:46:03.719Z,100805.38
2022-07-29T05:48:32.559Z,100802.84
2022-07-29T05:51:02.621Z,100807.66
2022-07-29T05:53:31.514Z,100814.56
2022-07-29T05:56:00.430Z,100862.84
2022-07-29T05:58:30.391Z,100899.19
2022-07-29T06:01:01.851Z,100916.97
2022-07-29T06:03:31.458Z,100922.19
2022-07-29T06:06:00.532Z,100917.59
2022-07-29T06:08:29.274Z,100916.56
2022-07-29T06:10:58.208Z,100900.69
2022-07-29T06:13:27.086Z,100889.81
2022-07-29T06:15:56.134Z,100899.66
2022-07-29T06:18:26.372Z,100915.72
2022-07-29T06:20:56.398Z,100921.13
2022-07-29T06:23:25.335Z,100906.22
2022-07-29T06:25:54.191Z,100904.53
2022-07-29T06:28:22.954Z,100904.69
2022-07-29T06:30:51.813Z,100902.34
2022-07-29T06:33:22.028Z,100912.13
2022-07-29T06:35:55.076Z,100916.44
2022-07-29T06:38:33.872Z,100917.81
2022-07-29T06:41:04.123Z,100912.69
2022-07-29T06:43:35.173Z,100921.44
2022-07-29T06:46:06.102Z,100908.59
2022-07-29T06:48:36.097Z,100919.81
2022-07-29T06:51:07.802Z,100935.47
2022-07-29T06:53:37.836Z,100964.13
2022-07-29T06:56:09.503Z,100979.78
2022-07-29T06:58:39.390Z,100974.06
2022-07-29T07:01:08.749Z,100974.69
2022-07-29T07:03:37.616Z,100978.66
2022-07-29T07:06:10.799Z,100988.50
2022-07-29T07:08:43.552Z,100987.06
2022-07-29T07:11:12.482Z,100990.44
2022-07-29T07:13:41.382Z,100982.25
2022-07-29T07:16:10.212Z,100979.09
2022-07-29T07:18:39.152Z,100983.53
2022-07-29T07:21:09.380Z,100982.94
2022-07-29T07:23:38.247Z,101002.03
2022-07-29T07:26:07.479Z,101003.31
2022-07-29T07:28:38.486Z,101005.19
2022-07-29T07:31:08.338Z,101006.88
2022-07-29T07:33:37.170Z,101006.88
2022-07-29T07:36:06.164Z,101005.38
2022-07-29T07:38:36.663Z,100970.25
2022-07-29T07:41:05.989Z,100977.72
2022-07-29T07:43:35.231Z,101005.75
2022-07-29T07:46:04.214Z,101007.81
2022-07-29T07:48:33.173Z,101006.97
2022-07-29T07:51:02.091Z,101019.72
2022-07-29T07:53:34.797Z,101017.38
2022-07-29T07:56:11.061Z,101020.72
2022-07-29T07:58:41.019Z,101014.81
2022-07-29T08:01:10.147Z,101030.91
2022-07-29T08:03:40.111Z,101034.66
2022-07-29T08:06:09.511Z,101035.63
2022-07-29T08:08:38.321Z,101027.53
2022-07-29T08:11:09.656Z,101035.00
2022-07-29T08:13:39.998Z,101044.72
2022-07-29T08:16:16.688Z,101049.91
2022-07-29T08:18:47.207Z,101059.31
2022-07-29T08:21:17.537Z,101039.44
2022-07-29T08:23:58.748Z,101069.09
2022-07-29T08:26:31.170Z,101055.56
2022-07-29T08:29:00.027Z,101063.09
2022-07-29T08:31:28.818Z,101066.81
2022-07-29T08:34:00.980Z,101065.53
2022-07-29T08:36:29.779Z,101065.06
2022-07-29T08:38:58.611Z,101069.44
2022-07-29T08:41:27.786Z,101071.72
2022-07-29T08:43:58.601Z,101030.84
2022-07-29T08:46:27.638Z,101081.91
2022-07-29T08:48:57.846Z,101090.72
2022-07-29T08:51:28.071Z,101090.06
2022-07-29T08:53:57.779Z,101091.28
2022-07-29T08:56:26.951Z,101090.78
2022-07-29T08:59:00.466Z,101097.22
2022-07-29T09:01:42.371Z,101094.50
2022-07-29T09:04:14.345Z,101057.66
2022-07-29T09:06:47.289Z,101081.88
2022-07-29T09:09:17.970Z,101077.16
2022-07-29T09:11:47.215Z,101083.25
2022-07-29T09:14:18.654Z,101078.75
2022-07-29T09:16:54.365Z,101066.53
2022-07-29T09:19:26.576Z,101081.25
2022-07-29T09:22:03.328Z,101074.72
2022-07-29T09:24:46.462Z,101079.13
2022-07-29T09:27:27.670Z,101072.81
2022-07-29T09:30:02.370Z,101088.41
2022-07-29T09:32:32.669Z,101102.19
2022-07-29T09:35:17.841Z,101105.88
2022-07-29T09:37:47.562Z,101096.91
2022-07-29T09:40:19.004Z,101087.72
2022-07-29T09:42:48.175Z,101095.09
2022-07-29T09:45:29.817Z,101100.34
2022-07-29T09:48:01.569Z,101123.88
2022-07-29T09:50:41.328Z,101089.22
2022-07-29T09:53:11.793Z,101128.06
2022-07-29T09:55:51.709Z,101131.41
2022-07-29T09:58:22.594Z,101127.22
2022-07-29T10:00:54.226Z,101135.06
2022-07-29T10:03:24.353Z,101133.38
2022-07-29T10:06:08.656Z,101134.22
2022-07-29T10:08:37.641Z,101151.31
2022-07-29T10:11:13.243Z,101140.84
2022-07-29T10:13:44.468Z,101132.06
2022-07-29T10:16:16.228Z,101105.28
2022-07-29T10:18:48.047Z,100953.50
2022-07-29T10:21:35.586Z,101102.22
2022-07-29T10:24:06.603Z,101104.22
2022-07-29T10:26:42.071Z,101088.81
2022-07-29T10:29:11.015Z,101095.88
2022-07-29T10:31:52.533Z,101087.88
2022-07-29T10:34:34.350Z,101086.66
2022-07-29T10:37:11.452Z,101074.31
2022-07-29T10:39:51.705Z,101077.03
2022-07-29T10:42:29.624Z,101077.41
2022-07-29T10:45:04.405Z,101068.03
2022-07-29T10:47:35.388Z,101071.44
2022-07-29T10:50:06.296Z,101067.00
2022-07-29T10:52:58.859Z,101080.88
2022-07-29T10:58:28.400Z,101078.13
2022-07-29T11:00:57.925Z,101071.72
2022-07-29T11:03:52.210Z,101066.66
2022-07-29T11:06:26.949Z,101071.91
2022-07-29T11:09:20.251Z,101070.47
2022-07-29T11:11:54.734Z,101063.00
2022-07-29T11:15:00.441Z,101059.81
2022-07-29T11:17:46.914Z,101056.03
2022-07-29T11:20:37.998Z,101050.31
2022-07-29T11:23:27.761Z,101058.00
2022-07-29T11:26:22.998Z,101050.16
2022-07-29T11:28:56.944Z,101050.44
2022-07-29T11:31:39.161Z,101064.34
2022-07-29T11:34:22.671Z,101071.84
2022-07-29T11:37:18.425Z,101066.16
2022-07-29T11:39:51.072Z,101062.91
2022-07-29T11:42:44.504Z,101051.59
2022-07-29T11:45:41.557Z,101046.03
2022-07-29T11:48:29.643Z,101032.69
2022-07-29T11:50:58.498Z,101035.56
2022-07-29T11:53:32.629Z,101032.59
2022-07-29T11:56:03.895Z,101033.78
2022-07-29T11:58:33.724Z,101032.09
2022-07-29T12:01:04.173Z,101029.97
2022-07-29T12:03:35.742Z,101026.69
2022-07-29T12:06:13.776Z,101034.44
2022-07-29T12:08:45.835Z,101031.97
2022-07-29T12:11:20.801Z,101030.03
2022-07-29T12:13:51.361Z,101027.25
2022-07-29T12:16:28.022Z,101020.41
2022-07-29T12:18:59.994Z,101030.38
2022-07-29T12:21:29.422Z,101019.63
2022-07-29T12:24:05.866Z,101009.69
2022-07-29T12:26:40.399Z,101014.94
2022-07-29T12:29:11.463Z,101009.69
2022-07-29T12:31:45.466Z,100999.22
2022-07-29T12:34:17.561Z,101016.38
2022-07-29T12:36:46.642Z,100997.38
2022-07-29T12:39:19.135Z,100963.34
2022-07-29T12:41:48.013Z,100986.53
2022-07-29T12:44:16.850Z,100986.81
2022-07-29T12:46:47.753Z,100980.47
2022-07-29T12:49:24.631Z,100968.94
2022-07-29T12:51:53.503Z,100969.19
2022-07-29T12:54:23.702Z,100963.97
2022-07-29T12:57:01.878Z,100926.97
2022-07-29T12:59:30.792Z,100971.44
2022-07-29T13:02:01.252Z,100959.28
2022-07-29T13:04:32.472Z,100953.19
2022-07-29T13:07:04.793Z,100954.84
2022-07-29T13:09:42.855Z,100957.84
2022-07-29T13:12:13.740Z,100951.19
2022-07-29T13:14:44.526Z,100946.25
2022-07-29T13:17:16.904Z,100942.09
2022-07-29T13:19:47.668Z,100932.97
2022-07-29T13:22:18.178Z,100932.13
2022-07-29T13:24:55.832Z,100926.59
2022-07-29T13:27:26.308Z,100922.69
2022-07-29T13:29:57.761Z,100926.81
2022-07-29T13:32:28.590Z,100881.00
2022-07-29T13:34:58.422Z,100924.56
2022-07-29T13:37:30.801Z,100917.09
2022-07-29T13:40:01.452Z,100915.22
2022-07-29T13:42:30.259Z,100910.28
2022-07-29T13:44:59.059Z,100906.34
2022-07-29T13:47:32.648Z,100914.53
2022-07-29T13:50:02.434Z,100906.72
2022-07-29T13:52:31.356Z,100911.59
2022-07-29T13:55:02.613Z,100906.25
2022-07-29T13:57:31.887Z,100902.84
2022-07-29T14:00:00.671Z,100910.84
2022-07-29T14:02:29.670Z,100905.25
2022-07-29T14:04:58.973Z,100903.31
2022-07-29T14:07:27.956Z,100899.19
2022-07-29T14:09:56.643Z,100903.06
2022-07-29T14:12:27.002Z,100892.81
2022-07-29T14:14:55.802Z,100888.94
2022-07-29T14:17:24.723Z,100881.75
2022-07-29T14:19:53.640Z,100885.63
2022-07-29T14:22:25.368Z,100892.03
2022-07-29T14:24:54.646Z,100889.50
2022-07-29T14:27:37.619Z,100887.28
2022-07-29T14:30:10.722Z,100890.53
2022-07-29T14:32:39.623Z,100886.94
2022-07-29T14:35:09.166Z,100834.28
2022-07-29T14:37:40.381Z,100879.75
2022-07-29T14:40:11.571Z,100879.63
2022-07-29T14:42:40.996Z,100870.75
2022-07-29T14:45:12.683Z,100868.22
2022-07-29T14:47:42.795Z,100818.88
2022-07-29T14:50:11.839Z,100871.19
2022-07-29T14:52:40.797Z,100867.84
2022-07-29T14:55:19.979Z,100861.47
2022-07-29T14:57:51.182Z,100864.53
2022-07-29T15:00:21.958Z,100870.56
2022-07-29T15:03:06.524Z,100865.78
2022-07-29T15:05:40.299Z,100865.03
2022-07-29T15:08:10.069Z,100863.41
2022-07-29T15:10:39.035Z,100855.69
2022-07-29T15:13:09.247Z,100849.38
2022-07-29T15:15:39.766Z,100858.59
2022-07-29T15:18:08.584Z,100858.06
2022-07-29T15:20:37.574Z,100853.59
2022-07-29T15:23:06.351Z,100857.47
2022-07-29T15:25:37.483Z,100853.06
2022-07-29T15:28:08.174Z,100855.09
2022-07-29T15:30:41.973Z,100854.34
2022-07-29T15:33:11.339Z,100869.88
2022-07-29T15:35:40.927Z,100859.38
2022-07-29T15:38:10.391Z,100867.19
2022-07-29T15:40:40.285Z,100869.19
2022-07-29T15:43:09.707Z,100869.34
2022-07-29T15:45:40.920Z,100866.63
2022-07-29T15:48:14.713Z,100852.56
2022-07-29T15:50:47.099Z,100863.41
2022-07-29T15:53:16.427Z,100868.16
2022-07-29T15:55:47.488Z,100868.16
2022-07-29T15:58:16.246Z,100869.88
2022-07-29T16:00:50.974Z,100874.06
2022-07-29T16:03:21.195Z,100871.06
2022-07-29T16:05:50.042Z,100868.31
2022-07-29T16:08:18.786Z,100869.94
2022-07-29T16:10:47.654Z,100870.22
2022-07-29T16:13:17.816Z,100870.50
2022-07-29T16:16:02.751Z,100835.00
2022-07-29T16:18:32.202Z,100871.13
2022-07-29T16:21:00.952Z,100868.09
2022-07-29T16:23:29.684Z,100863.94
2022-07-29T16:26:00.615Z,100866.09
2022-07-29T16:28:29.983Z,100876.03
2022-07-29T16:31:00.609Z,100865.28
2022-07-29T16:33:54.798Z,100870.81
2022-07-29T16:36:18.824Z,100863.34
2022-07-29T16:38:48.355Z,100865.81
2022-07-29T16:41:17.262Z,100869.94
2022-07-29T16:43:46.326Z,100871.59
2022-07-29T16:46:19.042Z,100884.84
2022-07-29T16:48:48.546Z,100881.81
2022-07-29T16:51:17.447Z,100884.03
2022-07-29T16:53:50.382Z,100890.94
2022-07-29T16:56:20.453Z,100890.69
2022-07-29T16:58:49.352Z,100891.03
2022-07-29T17:01:20.049Z,100899.34
2022-07-29T17:04:06.143Z,100912.31
2022-07-29T17:06:35.391Z,100899.91
2022-07-29T17:09:05.339Z,100905.69
2022-07-29T17:11:53.333Z,100900.72
2022-07-29T17:14:25.223Z,100903.19
2022-07-29T17:17:02.400Z,100903.19
2022-07-29T17:19:34.016Z,100913.69
2022-07-29T17:22:10.598Z,100920.38
2022-07-29T17:24:41.106Z,100922.53
2022-07-29T17:27:10.389Z,100914.81
2022-07-29T17:29:40.738Z,100918.41
2022-07-29T17:32:11.795Z,100919.22
2022-07-29T17:34:41.816Z,100936.91
2022-07-29T17:37:12.302Z,100927.53
2022-07-29T17:39:43.432Z,100935.25
2022-07-29T17:42:14.524Z,100938.59
2022-07-29T17:44:43.522Z,100939.13
2022-07-29T17:47:15.575Z,100940.81
2022-07-29T17:49:45.385Z,100937.47
2022-07-29T17:52:14.542Z,100927.00
2022-07-29T17:54:43.363Z,100941.63
2022-07-29T17:57:12.398Z,100940.78
2022-07-29T17:59:42.218Z,100948.50
2022-07-29T18:02:12.886Z,100942.41
2022-07-29T18:04:41.775Z,100944.59
2022-07-29T18:07:11.805Z,100943.47
2022-07-29T18:09:40.715Z,100939.31
2022-07-29T18:12:10.518Z,100937.13
2022-07-29T18:14:39.767Z,100935.19
2022-07-29T18:17:08.878Z,100941.78
2022-07-29T18:19:39.131Z,100943.16
2022-07-29T18:22:10.420Z,100939.56
2022-07-29T18:24:39.209Z,100935.69
2022-07-29T18:27:07.954Z,100940.63
2022-07-29T18:29:36.848Z,100924.56
2022-07-29T18:32:06.008Z,100941.41
2022-07-29T18:34:34.803Z,100932.28
2022-07-29T18:37:05.890Z,100940.28
2022-07-29T18:39:34.732Z,100941.91
2022-07-29T18:42:03.528Z,100949.88
2022-07-29T18:44:33.412Z,100949.00
2022-07-29T18:47:12.555Z,100957.22
2022-07-29T18:49:42.099Z,100952.53
2022-07-29T18:52:12.691Z,100953.34
2022-07-29T18:54:41.498Z,100952.47
2022-07-29T18:57:54.558Z,100954.06
2022-07-29T18:59:59.245Z,100961.72
2022-07-29T19:02:28.464Z,100962.25
2022-07-29T19:04:57.366Z,100957.28
2022-07-29T19:07:27.581Z,100972.94
2022-07-29T19:09:56.384Z,100963.78
2022-07-29T19:12:25.118Z,100972.28
2022-07-29T19:14:53.911Z,100965.03
2022-07-29T19:17:24.083Z,100967.91
2022-07-29T19:19:54.118Z,100948.19
2022-07-29T19:22:23.345Z,100969.16
2022-07-29T19:24:54.752Z,100975.00
2022-07-29T19:27:23.643Z,100980.66
2022-07-29T19:29:52.536Z,100980.19
2022-07-29T19:32:24.491Z,100987.00
2022-07-29T19:35:11.733Z,100991.22
2022-07-29T19:37:40.557Z,101004.19
2022-07-29T19:40:12.421Z,101003.69
2022-07-29T19:42:41.342Z,101007.97
2022-07-29T19:45:11.161Z,101000.22
2022-07-29T19:47:40.019Z,100993.75
2022-07-29T19:50:10.374Z,101012.78
2022-07-29T19:52:39.334Z,101018.72
2022-07-29T19:55:08.955Z,101029.28
2022-07-29T19:57:41.173Z,101040.13
2022-07-29T20:00:11.669Z,101040.91
2022-07-29T20:02:41.923Z,101048.38
2022-07-29T20:05:11.733Z,101050.19
2022-07-29T20:07:41.210Z,101056.91
2022-07-29T20:10:12.239Z,101062.06
2022-07-29T20:12:42.951Z,101072.94
2022-07-29T20:15:14.782Z,101071.19
2022-07-29T20:17:45.546Z,101070.34
2022-07-29T20:20:14.531Z,101078.94
2022-07-29T20:22:43.321Z,101070.09
2022-07-29T20:25:13.637Z,100958.06
2022-07-29T20:27:43.905Z,101082.16
2022-07-29T20:30:14.575Z,101082.75
2022-07-29T20:32:43.496Z,101089.31
2022-07-29T20:35:12.311Z,101080.00
2022-07-29T20:37:52.079Z,101083.81
2022-07-29T20:40:26.348Z,101086.47
2022-07-29T20:42:57.357Z,101082.19
2022-07-29T20:45:27.035Z,101090.59
2022-07-29T20:47:55.946Z,101082.22
2022-07-29T20:50:25.022Z,101081.28
2022-07-29T20:52:54.183Z,101081.75
2022-07-29T20:55:22.968Z,101084.97
2022-07-29T20:57:51.780Z,101083.19
2022-07-29T21:00:22.088Z,101086.94
2022-07-29T21:02:51.031Z,101089.91
2022-07-29T21:05:19.819Z,101089.91
2022-07-29T21:07:48.633Z,101095.63
2022-07-29T21:10:18.521Z,101083.34
2022-07-29T21:12:48.034Z,101091.91
2022-07-29T21:15:16.939Z,101097.13
2022-07-29T21:17:48.298Z,101101.78
2022-07-29T21:20:18.536Z,101090.59
2022-07-29T21:22:47.407Z,101095.72
2022-07-29T21:25:16.160Z,101092.41
2022-07-29T21:28:02.080Z,101098.72
2022-07-29T21:30:30.853Z,101097.28
2022-07-29T21:33:01.159Z,101102.78
2022-07-29T21:36:01.690Z,101107.06
2022-07-29T21:38:19.674Z,101102.66
2022-07-29T21:40:51.455Z,101106.47
2022-07-29T21:43:21.166Z,101104.22
2022-07-29T21:45:50.873Z,101116.47
2022-07-29T21:48:22.362Z,101117.00
2022-07-29T21:50:52.048Z,101113.41
2022-07-29T21:53:22.908Z,101116.03
2022-07-29T21:55:52.226Z,101113.75
2022-07-29T21:58:25.819Z,101112.53
2022-07-29T22:00:54.770Z,101121.22
2022-07-29T22:03:25.046Z,101110.75
2022-07-29T22:05:54.445Z,101122.91
2022-07-29T22:08:23.118Z,101117.44
2022-07-29T22:10:52.064Z,101119.56
2022-07-29T22:13:20.827Z,101116.47
2022-07-29T22:15:49.710Z,101110.50
2022-07-29T22:18:19.505Z,101114.41
2022-07-29T22:20:51.731Z,101121.53
2022-07-29T22:23:20.503Z,101119.28
2022-07-29T22:25:49.376Z,101122.84
2022-07-29T22:28:18.082Z,101123.69
2022-07-29T22:30:46.979Z,101127.38
2022-07-29T22:33:17.730Z,101133.47
2022-07-29T22:35:48.656Z,101134.28
2022-07-29T22:38:19.677Z,101113.66
2022-07-29T22:40:50.673Z,101141.06
2022-07-29T22:43:19.685Z,101129.28
2022-07-29T22:45:48.570Z,101137.97
2022-07-29T22:48:17.391Z,101132.81
2022-07-29T22:50:46.174Z,101140.28
2022-07-29T22:53:14.947Z,101142.03
2022-07-29T22:55:45.194Z,101151.31
2022-07-29T22:58:13.992Z,101146.06
2022-07-29T23:00:42.748Z,101155.72
2022-07-29T23:03:11.533Z,101148.59
2022-07-29T23:05:40.332Z,101155.81
2022-07-29T23:08:09.215Z,101149.59
2022-07-29T23:10:38.023Z,101158.72
2022-07-29T23:13:08.353Z,101151.53
2022-07-29T23:15:39.116Z,101135.59
2022-07-29T23:18:08.053Z,101151.31
2022-07-29T23:20:37.147Z,101131.72
2022-07-29T23:23:05.960Z,101152.59
2022-07-29T23:25:34.773Z,101157.47
2022-07-29T23:28:03.694Z,101132.69
2022-07-29T23:30:34.220Z,101140.06
2022-07-29T23:33:03.156Z,101156.00
2022-07-29T23:35:31.867Z,101152.97
2022-07-29T23:38:00.723Z,101153.88
2022-07-29T23:40:29.819Z,101157.72
2022-07-29T23:42:58.702Z,101152.78
2022-07-29T23:45:42.609Z,101152.41
2022-07-29T23:48:15.679Z,101144.88
2022-07-29T23:50:44.453Z,101147.84
2022-07-29T23:53:13.510Z,101144.50
2022-07-29T23:55:42.378Z,101145.63
2022-07-29T23:58:11.149Z,101149.69
